Terminal Aerodrome Forecast
Issued by NWS Wilmington, OH

Current Version | Previous Version | Text Only | Print | Product List | Glossary On
Versions: 1 2 3 4 5 6 7 8 9 10 11 12 13 14 15 16 17
000
FTUS41 KILN 131900 AAA
TAFDAY
TAF AMD
KDAY 131956Z 1320/1418 27014G22KT P6SM VCTS FEW035CB BKN050
     FM140100 25012G20KT P6SM VCSH BKN035
     FM141400 21010KT P6SM VCTS SCT040CB BKN100=

USA.gov is the U.S. government's official web portal to all federal, state and local government web resources and services.